Time;durP1;ratioP1;P1;durP2;ratioP2;P2;SDS_P1;SDS_P2;PMS_P1;PMS_P2;Temp;Humidity;BMP_temperature;BMP_pressure;BME280_temperature;BME280_humidity;BME280_pressure;Samples;Min_cycle;Max_cycle;Signal;HPM_P1;HPM_P2
2023/08/21 00:00:42;;;;;;;21.77;13.32;;;19.40;99.90;;;;;;5037786;28;20093;-56
2023/08/21 00:03:08;;;;;;;26.65;14.15;;;19.40;99.90;;;;;;5037175;28;20033;-54
2023/08/21 00:05:34;;;;;;;21.73;13.27;;;19.50;99.90;;;;;;5040432;28;20484;-54
2023/08/21 00:07:59;;;;;;;17.77;13.38;;;19.40;99.90;;;;;;5039035;28;20037;-56
2023/08/21 00:10:24;;;;;;;20.27;13.40;;;19.30;99.90;;;;;;5040378;28;20036;-55
2023/08/21 00:12:50;;;;;;;23.63;14.43;;;19.30;99.90;;;;;;5034917;28;20096;-55
2023/08/21 00:15:16;;;;;;;19.80;13.40;;;19.30;99.90;;;;;;5039142;28;20028;-57
2023/08/21 00:17:41;;;;;;;19.40;13.18;;;19.30;99.90;;;;;;5039412;28;20546;-55
2023/08/21 00:20:09;;;;;;;21.77;12.98;;;19.30;99.90;;;;;;5036907;28;20021;-53
2023/08/21 00:22:35;;;;;;;20.17;12.88;;;19.20;99.90;;;;;;5049015;28;20025;-55
2023/08/21 00:25:01;;;;;;;27.38;13.90;;;19.20;99.90;;;;;;5040656;28;20028;-53
2023/08/21 00:27:26;;;;;;;32.17;13.68;;;19.30;99.90;;;;;;5035144;28;20026;-56
2023/08/21 00:29:52;;;;;;;28.08;13.90;;;19.20;99.90;;;;;;5038557;28;20067;-52
2023/08/21 00:32:17;;;;;;;20.27;15.18;;;19.20;99.90;;;;;;5033265;28;20065;-53
2023/08/21 00:34:43;;;;;;;23.20;14.85;;;19.20;99.90;;;;;;5042699;28;20028;-54
2023/08/21 00:37:10;;;;;;;25.10;14.73;;;19.10;99.90;;;;;;5042070;28;20026;-57
2023/08/21 00:39:36;;;;;;;23.52;14.98;;;19.10;99.90;;;;;;5041390;28;20101;-52
2023/08/21 00:42:01;;;;;;;19.50;14.32;;;19.10;99.90;;;;;;5039197;28;20108;-53
2023/08/21 00:44:27;;;;;;;20.15;13.85;;;19.10;99.90;;;;;;5039003;28;20462;-55
2023/08/21 00:46:53;;;;;;;22.75;15.55;;;19.10;99.90;;;;;;5035191;28;20025;-53
2023/08/21 00:49:19;;;;;;;19.15;13.02;;;19.10;99.90;;;;;;5035929;28;20017;-52
2023/08/21 00:51:45;;;;;;;24.40;14.95;;;19.20;99.90;;;;;;5044493;28;20037;-52
2023/08/21 00:54:10;;;;;;;22.35;15.27;;;19.20;99.90;;;;;;5037973;28;20140;-54
2023/08/21 00:56:36;;;;;;;21.25;15.00;;;19.10;99.90;;;;;;5044126;28;20104;-57
2023/08/21 00:59:02;;;;;;;21.80;13.95;;;19.10;99.90;;;;;;5040945;28;20024;-56
2023/08/21 01:01:28;;;;;;;27.77;15.48;;;19.10;99.90;;;;;;5039228;28;20025;-54
2023/08/21 01:03:54;;;;;;;24.55;14.05;;;19.10;99.90;;;;;;5035965;28;20033;-53
2023/08/21 01:06:20;;;;;;;26.85;15.68;;;19.10;99.90;;;;;;5034235;28;20044;-57
2023/08/21 01:08:45;;;;;;;24.77;15.73;;;19.10;99.90;;;;;;5035185;28;20030;-55
2023/08/21 01:11:36;;;;;;;23.55;15.27;;;19.10;99.90;;;;;;5033493;28;20034;-57
2023/08/21 01:14:25;;;;;;;22.48;15.18;;;19.00;99.90;;;;;;5045013;28;20029;-52
2023/08/21 01:16:56;;;;;;;21.05;14.90;;;19.00;99.90;;;;;;5037890;28;20052;-56
2023/08/21 01:19:31;;;;;;;24.45;15.32;;;19.00;99.90;;;;;;5033961;28;20068;-52
2023/08/21 01:21:58;;;;;;;17.75;13.10;;;19.00;99.90;;;;;;5042148;28;21028;-54
2023/08/21 01:24:24;;;;;;;21.70;15.07;;;19.00;99.90;;;;;;5047587;28;20083;-56
2023/08/21 01:26:49;;;;;;;23.08;15.23;;;19.00;99.90;;;;;;5035687;28;20037;-55
2023/08/21 01:29:15;;;;;;;20.38;15.18;;;18.90;99.90;;;;;;5043853;28;20063;-52
2023/08/21 01:31:47;;;;;;;24.48;14.90;;;18.90;99.90;;;;;;5037043;28;20177;-54
2023/08/21 01:34:15;;;;;;;30.75;14.07;;;19.00;99.90;;;;;;5040091;28;20029;-56
2023/08/21 01:36:42;;;;;;;23.58;13.57;;;19.00;99.90;;;;;;5045291;28;20564;-53
2023/08/21 01:39:08;;;;;;;21.88;13.43;;;19.00;99.90;;;;;;5038311;28;20063;-58
2023/08/21 01:41:33;;;;;;;24.92;14.45;;;19.00;99.90;;;;;;5040442;28;20022;-56
2023/08/21 01:43:59;;;;;;;23.48;14.10;;;19.00;99.90;;;;;;5034599;28;20064;-53
2023/08/21 01:46:24;;;;;;;19.60;12.05;;;18.90;99.90;;;;;;5036125;28;20065;-56
2023/08/21 01:48:50;;;;;;;22.50;12.45;;;18.90;99.90;;;;;;5038543;28;20028;-55
2023/08/21 01:51:15;;;;;;;20.35;12.60;;;18.90;99.90;;;;;;5034682;28;20026;-56
2023/08/21 01:53:41;;;;;;;22.10;13.05;;;18.90;99.90;;;;;;5040840;28;20399;-60
2023/08/21 01:56:06;;;;;;;29.58;14.25;;;18.90;99.90;;;;;;5035662;28;20029;-53
2023/08/21 01:58:32;;;;;;;17.83;12.88;;;18.90;99.90;;;;;;5040587;28;20037;-57
2023/08/21 02:00:57;;;;;;;21.33;13.95;;;18.80;99.90;;;;;;5037858;28;20017;-53
2023/08/21 02:03:25;;;;;;;19.25;13.30;;;18.80;99.90;;;;;;5040599;28;20026;-53
2023/08/21 02:05:51;;;;;;;24.23;13.73;;;18.80;99.90;;;;;;5035989;28;20022;-56
2023/08/21 02:08:17;;;;;;;21.67;14.15;;;18.70;99.90;;;;;;5044759;28;20132;-56
2023/08/21 02:10:52;;;;;;;23.30;14.40;;;18.70;99.90;;;;;;5036460;28;20029;-59
2023/08/21 02:13:18;;;;;;;21.45;13.98;;;18.70;99.90;;;;;;5041277;28;20115;-56
2023/08/21 02:15:44;;;;;;;25.55;14.35;;;18.70;99.90;;;;;;5034504;28;20030;-57
2023/08/21 02:18:10;;;;;;;24.77;13.85;;;18.70;99.90;;;;;;5038283;28;20513;-55
2023/08/21 02:20:35;;;;;;;18.85;12.25;;;18.70;99.90;;;;;;5038233;28;20086;-53
2023/08/21 02:23:01;;;;;;;20.77;12.98;;;18.70;99.90;;;;;;5044074;28;20467;-55
2023/08/21 02:25:26;;;;;;;17.65;11.60;;;18.80;99.90;;;;;;5037414;28;20025;-56
2023/08/21 02:27:52;;;;;;;16.15;11.90;;;18.80;99.90;;;;;;5040989;28;20089;-56
2023/08/21 02:30:17;;;;;;;20.35;12.40;;;18.70;99.90;;;;;;5041584;28;20033;-56
2023/08/21 02:32:43;;;;;;;20.98;12.00;;;18.70;99.90;;;;;;5045503;28;20034;-57
2023/08/21 02:35:09;;;;;;;18.65;11.57;;;18.70;99.90;;;;;;5040618;28;20394;-56
2023/08/21 02:37:38;;;;;;;19.02;12.15;;;18.60;99.90;;;;;;5045574;28;20036;-54
2023/08/21 02:40:07;;;;;;;21.95;12.50;;;18.60;99.90;;;;;;5044633;28;20021;-55
2023/08/21 02:42:33;;;;;;;26.10;12.70;;;18.50;99.90;;;;;;5039627;28;20104;-56
2023/08/21 02:44:58;;;;;;;24.88;11.73;;;18.50;99.90;;;;;;5040723;28;20174;-54
2023/08/21 02:47:24;;;;;;;14.45;11.32;;;18.50;99.90;;;;;;5045034;28;20063;-56
2023/08/21 02:49:50;;;;;;;19.83;10.75;;;18.50;99.90;;;;;;5055426;28;20028;-53
2023/08/21 02:52:17;;;;;;;20.13;10.57;;;18.50;99.90;;;;;;5042198;28;20624;-55
2023/08/21 02:54:42;;;;;;;18.17;10.90;;;18.50;99.90;;;;;;5041736;28;20036;-53
2023/08/21 02:57:08;;;;;;;20.58;11.93;;;18.50;99.90;;;;;;5044575;28;20021;-55
2023/08/21 02:59:34;;;;;;;18.90;11.52;;;18.50;99.90;;;;;;5044875;28;20041;-55
2023/08/21 03:01:59;;;;;;;13.25;9.77;;;18.60;99.90;;;;;;5046886;28;20037;-56
2023/08/21 03:04:25;;;;;;;17.13;10.68;;;18.60;99.90;;;;;;5048170;28;20372;-58
2023/08/21 03:06:50;;;;;;;20.95;11.50;;;18.60;99.90;;;;;;5040575;28;20033;-56
2023/08/21 03:09:16;;;;;;;16.08;10.80;;;18.60;99.90;;;;;;5047149;28;20040;-55
2023/08/21 03:11:41;;;;;;;16.02;10.82;;;18.70;99.90;;;;;;5045118;28;20442;-55
2023/08/21 03:14:07;;;;;;;20.10;10.35;;;18.70;99.90;;;;;;5042533;28;20552;-56
2023/08/21 03:16:32;;;;;;;14.55;9.25;;;18.70;99.90;;;;;;5049884;28;20580;-54
2023/08/21 03:19:00;;;;;;;23.60;9.82;;;18.80;99.90;;;;;;5042753;28;20049;-54
2023/08/21 03:21:25;;;;;;;14.38;9.02;;;18.80;99.90;;;;;;5038972;28;20025;-54
2023/08/21 03:23:56;;;;;;;20.13;9.13;;;18.80;99.90;;;;;;5041636;28;20037;-55
2023/08/21 03:26:22;;;;;;;18.52;8.43;;;18.80;99.90;;;;;;5052731;28;20032;-54
2023/08/21 03:28:48;;;;;;;16.58;8.93;;;18.80;99.90;;;;;;5040380;28;20475;-56
2023/08/21 03:31:14;;;;;;;14.02;8.10;;;18.80;99.90;;;;;;5035925;28;20064;-55
2023/08/21 03:33:40;;;;;;;13.85;7.90;;;18.70;99.90;;;;;;5045394;28;20030;-55
2023/08/21 03:36:06;;;;;;;16.30;9.13;;;18.70;99.90;;;;;;5042159;28;20029;-53
2023/08/21 03:38:32;;;;;;;15.15;9.05;;;18.60;99.90;;;;;;5040470;28;20112;-56
2023/08/21 03:40:58;;;;;;;16.15;8.50;;;18.60;99.90;;;;;;5040731;28;20535;-53
2023/08/21 03:43:24;;;;;;;20.08;9.07;;;18.60;99.90;;;;;;5039422;28;20056;-55
2023/08/21 03:45:49;;;;;;;16.88;8.77;;;18.60;99.90;;;;;;5041164;28;20495;-56
2023/08/21 03:48:15;;;;;;;21.00;9.52;;;18.50;99.90;;;;;;5040252;28;20033;-55
2023/08/21 03:50:40;;;;;;;13.55;8.68;;;18.50;99.90;;;;;;5055530;28;20021;-54
2023/08/21 03:53:06;;;;;;;16.42;9.35;;;18.40;99.90;;;;;;5041182;28;20026;-55
2023/08/21 03:55:32;;;;;;;17.40;10.38;;;18.40;99.90;;;;;;5045050;28;20037;-57
2023/08/21 03:57:57;;;;;;;19.17;9.45;;;18.40;99.90;;;;;;5042236;28;20492;-55
2023/08/21 04:00:23;;;;;;;17.40;10.35;;;18.40;99.90;;;;;;5045682;28;20043;-55
2023/08/21 04:02:48;;;;;;;16.55;9.45;;;18.40;99.90;;;;;;5042698;28;20083;-55
2023/08/21 04:05:14;;;;;;;20.38;9.15;;;18.40;99.90;;;;;;5036059;28;20122;-57
2023/08/21 04:07:39;;;;;;;16.35;9.38;;;18.30;99.90;;;;;;5041285;28;20028;-55
2023/08/21 04:10:06;;;;;;;19.02;9.63;;;18.40;99.90;;;;;;5044434;28;20459;-57
2023/08/21 04:12:31;;;;;;;16.60;9.40;;;18.40;99.90;;;;;;5044782;28;20024;-54
2023/08/21 04:14:57;;;;;;;18.10;9.93;;;18.40;99.90;;;;;;5041956;28;20391;-53
2023/08/21 04:17:23;;;;;;;11.50;7.90;;;18.40;99.90;;;;;;5047115;28;20418;-56
2023/08/21 04:19:52;;;;;;;14.13;9.20;;;18.30;99.90;;;;;;5041384;28;20087;-57
2023/08/21 04:22:18;;;;;;;12.85;8.77;;;18.30;99.90;;;;;;5037922;28;20579;-54
2023/08/21 04:24:44;;;;;;;15.68;8.98;;;18.20;99.90;;;;;;5036555;28;20032;-56
2023/08/21 04:27:09;;;;;;;17.05;8.52;;;18.20;99.90;;;;;;5035357;28;20104;-57
2023/08/21 04:29:35;;;;;;;15.57;9.18;;;18.20;99.90;;;;;;5036785;28;20051;-53
2023/08/21 04:32:01;;;;;;;21.67;9.57;;;18.20;99.90;;;;;;5039437;28;20114;-54
2023/08/21 04:34:27;;;;;;;15.13;9.25;;;18.20;99.90;;;;;;5038662;28;20022;-55
2023/08/21 04:36:52;;;;;;;15.60;9.27;;;18.10;99.90;;;;;;5034928;28;20538;-59
2023/08/21 04:39:18;;;;;;;19.40;9.10;;;18.10;99.90;;;;;;5033903;28;20037;-56
2023/08/21 04:41:44;;;;;;;16.13;9.00;;;18.00;99.90;;;;;;5037685;28;20029;-55
2023/08/21 04:44:09;;;;;;;17.17;9.23;;;18.00;99.90;;;;;;5037801;28;20044;-54
2023/08/21 04:46:35;;;;;;;14.15;9.00;;;18.00;99.90;;;;;;5040394;28;20095;-56
2023/08/21 04:49:00;;;;;;;17.63;9.70;;;18.00;99.90;;;;;;5043370;28;20397;-55
2023/08/21 04:51:26;;;;;;;18.50;9.25;;;18.00;99.90;;;;;;5037997;28;20067;-56
2023/08/21 04:53:52;;;;;;;17.05;9.25;;;18.10;99.90;;;;;;5035066;28;20044;-57
2023/08/21 04:56:17;;;;;;;17.58;9.38;;;18.00;99.90;;;;;;5026567;28;20036;-57
2023/08/21 04:58:43;;;;;;;12.77;8.30;;;18.00;99.90;;;;;;5038033;28;20123;-56
2023/08/21 05:01:08;;;;;;;21.70;9.10;;;18.00;99.90;;;;;;5043242;28;20025;-57
2023/08/21 05:03:34;;;;;;;24.80;10.65;;;18.00;99.90;;;;;;5041774;28;20104;-55
2023/08/21 05:05:59;;;;;;;16.38;8.77;;;18.00;99.90;;;;;;5040639;28;20052;-54
2023/08/21 05:08:26;;;;;;;17.10;9.35;;;18.00;99.90;;;;;;5037156;28;20502;-56
2023/08/21 05:10:59;;;;;;;15.70;8.57;;;18.10;99.90;;;;;;5044034;28;20049;-57
2023/08/21 05:13:25;;;;;;;13.52;8.32;;;18.20;99.90;;;;;;5039292;28;20115;-56
2023/08/21 05:15:55;;;;;;;15.10;8.30;;;18.20;99.90;;;;;;5038760;28;20103;-56
2023/08/21 05:18:21;;;;;;;18.38;10.13;;;18.30;99.90;;;;;;5038766;28;20458;-55
2023/08/21 05:20:50;;;;;;;20.73;9.23;;;18.30;99.90;;;;;;5039472;28;20021;-56
2023/08/21 05:23:16;;;;;;;13.55;7.05;;;18.30;99.90;;;;;;5039670;28;20585;-57
2023/08/21 05:25:43;;;;;;;15.50;8.00;;;18.40;99.90;;;;;;5038025;28;20037;-57
2023/08/21 05:28:08;;;;;;;13.90;8.27;;;18.40;99.90;;;;;;5039123;28;20025;-58
2023/08/21 05:30:36;;;;;;;16.92;8.32;;;18.40;99.90;;;;;;5035376;28;20028;-56
2023/08/21 05:33:02;;;;;;;14.32;7.38;;;18.40;99.90;;;;;;5042637;28;20075;-56
2023/08/21 05:35:28;;;;;;;14.90;8.07;;;18.50;99.90;;;;;;5043827;28;20045;-55
2023/08/21 05:37:53;;;;;;;16.60;7.63;;;18.50;99.90;;;;;;5032375;28;20025;-56
2023/08/21 05:40:19;;;;;;;17.80;7.72;;;18.60;99.90;;;;;;5034652;28;20036;-58
2023/08/21 05:42:44;;;;;;;13.02;7.25;;;18.60;99.90;;;;;;5041689;28;20139;-55
2023/08/21 05:45:10;;;;;;;17.90;7.80;;;18.60;99.90;;;;;;5037777;28;20017;-54
2023/08/21 05:47:36;;;;;;;18.65;8.35;;;18.70;99.90;;;;;;5041844;28;20049;-57
2023/08/21 05:50:02;;;;;;;18.17;7.90;;;18.70;99.90;;;;;;5044097;28;20112;-56
2023/08/21 05:52:27;;;;;;;11.85;7.88;;;18.70;99.90;;;;;;5051751;28;20020;-55
2023/08/21 05:54:53;;;;;;;20.48;7.38;;;18.80;99.90;;;;;;5048909;28;20025;-57
2023/08/21 05:57:18;;;;;;;15.30;8.25;;;18.90;99.90;;;;;;5040430;28;20029;-55
2023/08/21 05:59:47;;;;;;;13.43;7.50;;;18.90;99.90;;;;;;5044423;28;20029;-57
2023/08/21 06:02:13;;;;;;;14.90;6.95;;;19.10;99.90;;;;;;5045663;28;20100;-55
2023/08/21 06:04:43;;;;;;;16.50;7.22;;;19.10;99.90;;;;;;5044197;28;20020;-56
2023/08/21 06:07:09;;;;;;;15.77;7.75;;;19.20;99.90;;;;;;5047678;28;20092;-57
2023/08/21 06:09:36;;;;;;;19.20;8.90;;;19.30;99.90;;;;;;5044600;28;20108;-56
2023/08/21 06:12:02;;;;;;;17.40;7.78;;;19.40;99.90;;;;;;5047867;28;20028;-56
2023/08/21 06:14:30;;;;;;;11.30;7.05;;;19.50;99.90;;;;;;5045356;28;20549;-55
2023/08/21 06:17:03;;;;;;;12.43;8.07;;;19.70;99.90;;;;;;5039229;28;20033;-54
2023/08/21 06:19:29;;;;;;;13.23;6.78;;;19.80;99.90;;;;;;5044586;28;20566;-56
2023/08/21 06:21:57;;;;;;;14.25;6.93;;;19.80;99.90;;;;;;5043383;28;20117;-54
2023/08/21 06:24:24;;;;;;;12.27;6.15;;;19.90;99.90;;;;;;5048550;28;20033;-56
2023/08/21 06:26:51;;;;;;;14.73;6.03;;;20.00;99.90;;;;;;5041003;28;20143;-56
2023/08/21 06:29:16;;;;;;;13.93;8.07;;;20.00;99.90;;;;;;5048209;28;20083;-54
2023/08/21 06:31:42;;;;;;;16.48;9.10;;;20.00;99.90;;;;;;5041119;28;20018;-54
2023/08/21 06:34:08;;;;;;;15.88;8.15;;;20.10;99.90;;;;;;5044361;28;20025;-55
2023/08/21 06:36:33;;;;;;;18.02;8.30;;;20.10;99.90;;;;;;5045513;28;20114;-53
2023/08/21 06:38:59;;;;;;;19.17;8.40;;;20.20;99.90;;;;;;5043552;28;20175;-53
2023/08/21 06:41:25;;;;;;;18.75;9.40;;;20.20;99.90;;;;;;5038939;28;20056;-56
2023/08/21 06:43:51;;;;;;;16.20;8.82;;;20.20;99.90;;;;;;5042589;28;20051;-56
2023/08/21 06:46:16;;;;;;;15.70;9.77;;;20.30;99.90;;;;;;5037068;28;20109;-57
2023/08/21 06:48:43;;;;;;;16.20;8.35;;;20.40;99.90;;;;;;5043795;28;20057;-54
2023/08/21 06:51:09;;;;;;;21.63;11.18;;;20.40;99.90;;;;;;5040863;28;20075;-54
2023/08/21 06:53:35;;;;;;;16.30;11.90;;;20.40;99.90;;;;;;5042520;28;20021;-54
2023/08/21 06:56:00;;;;;;;18.85;12.38;;;20.50;99.90;;;;;;5041096;28;20017;-56
2023/08/21 06:58:26;;;;;;;21.63;13.40;;;20.60;99.90;;;;;;5044757;28;20104;-55
2023/08/21 07:00:53;;;;;;;18.70;11.55;;;20.60;99.90;;;;;;5040475;28;20156;-56
2023/08/21 07:03:20;;;;;;;15.15;11.25;;;20.70;99.90;;;;;;5044638;28;20108;-55
2023/08/21 07:05:58;;;;;;;20.00;10.80;;;20.70;99.90;;;;;;5042559;28;20089;-54
2023/08/21 07:08:25;;;;;;;19.83;11.85;;;20.70;99.90;;;;;;5045065;28;20061;-56
2023/08/21 07:10:51;;;;;;;23.17;11.82;;;20.80;99.90;;;;;;5042754;28;20028;-56
2023/08/21 07:13:17;;;;;;;17.27;12.93;;;20.90;99.90;;;;;;5044401;28;20037;-54
2023/08/21 07:15:42;;;;;;;20.90;12.05;;;20.90;99.90;;;;;;5043115;28;20037;-56
2023/08/21 07:18:08;;;;;;;20.05;13.23;;;21.00;99.90;;;;;;5045288;28;20029;-55
2023/08/21 07:20:34;;;;;;;28.48;14.18;;;21.00;99.90;;;;;;5041496;28;20029;-56
2023/08/21 07:23:00;;;;;;;28.27;13.32;;;21.10;99.90;;;;;;5043798;28;20044;-56
2023/08/21 07:25:26;;;;;;;17.55;11.32;;;21.20;99.90;;;;;;5046120;28;20033;-57
2023/08/21 07:27:54;;;;;;;26.10;14.10;;;21.30;99.90;;;;;;5048341;28;20422;-54
2023/08/21 07:30:22;;;;;;;26.10;15.60;;;21.30;99.90;;;;;;5048984;28;20056;-55
2023/08/21 07:32:47;;;;;;;24.23;15.57;;;21.40;99.90;;;;;;5041646;28;20458;-56
2023/08/21 07:35:13;;;;;;;18.90;13.30;;;21.50;99.90;;;;;;5043688;28;20040;-56
2023/08/21 07:37:40;;;;;;;29.55;15.65;;;21.50;99.90;;;;;;5041983;28;20033;-53
2023/08/21 07:40:07;;;;;;;19.55;12.93;;;21.60;99.90;;;;;;5042526;28;20033;-54
2023/08/21 07:42:32;;;;;;;16.90;12.85;;;21.70;99.90;;;;;;5039104;28;20029;-54
2023/08/21 07:44:58;;;;;;;25.88;12.98;;;21.70;99.90;;;;;;5049623;28;20044;-56
2023/08/21 07:47:23;;;;;;;20.48;13.35;;;21.70;99.90;;;;;;5044331;28;20051;-55
2023/08/21 07:49:49;;;;;;;22.75;13.10;;;21.90;99.90;;;;;;5045101;28;20037;-53
2023/08/21 07:52:16;;;;;;;24.67;14.77;;;21.90;99.90;;;;;;5039082;28;20029;-53
2023/08/21 07:54:41;;;;;;;26.20;15.18;;;21.90;99.90;;;;;;5041550;28;20048;-53
2023/08/21 07:57:07;;;;;;;19.27;12.05;;;22.00;99.90;;;;;;5040359;28;20480;-56
2023/08/21 07:59:32;;;;;;;21.88;13.48;;;22.00;99.90;;;;;;5041415;28;20027;-55
2023/08/21 08:02:00;;;;;;;20.58;12.98;;;22.10;99.90;;;;;;5046034;28;20029;-56
2023/08/21 08:04:25;;;;;;;20.20;11.70;;;22.20;99.90;;;;;;5047497;28;20028;-54
2023/08/21 08:06:51;;;;;;;21.55;10.52;;;22.30;99.90;;;;;;5039108;28;20029;-55
2023/08/21 08:09:16;;;;;;;31.45;10.95;;;22.40;99.90;;;;;;5044461;28;20029;-55
2023/08/21 08:11:42;;;;;;;15.13;10.35;;;22.50;99.90;;;;;;5042796;28;20026;-58
2023/08/21 08:14:07;;;;;;;22.48;9.98;;;22.60;99.90;;;;;;5044027;28;20051;-54
2023/08/21 08:16:33;;;;;;;22.38;11.75;;;22.60;99.90;;;;;;5041594;28;20086;-55
2023/08/21 08:18:59;;;;;;;22.17;11.85;;;22.80;99.90;;;;;;5044882;28;20029;-54
2023/08/21 08:21:24;;;;;;;16.90;10.50;;;22.80;99.90;;;;;;5037773;28;20033;-54
2023/08/21 08:23:50;;;;;;;14.73;9.95;;;22.80;99.90;;;;;;5044817;28;20465;-54
2023/08/21 08:26:16;;;;;;;17.85;11.02;;;22.90;99.90;;;;;;5049342;28;20056;-57
2023/08/21 08:28:42;;;;;;;17.25;10.35;;;22.90;99.90;;;;;;5056971;28;20018;-56
2023/08/21 08:31:17;;;;;;;20.35;11.35;;;22.90;99.90;;;;;;5042343;28;20589;-57
2023/08/21 08:33:43;;;;;;;20.52;11.70;;;23.00;99.90;;;;;;5044694;28;20467;-56
2023/08/21 08:36:08;;;;;;;25.58;12.88;;;23.10;99.90;;;;;;5044167;28;20048;-58
2023/08/21 08:38:34;;;;;;;19.52;10.70;;;23.10;99.90;;;;;;5040283;28;20426;-57
2023/08/21 08:41:02;;;;;;;22.13;12.82;;;23.10;99.90;;;;;;5042126;28;20032;-56
2023/08/21 08:43:28;;;;;;;19.65;10.30;;;23.20;99.90;;;;;;5041395;28;20151;-55
2023/08/21 08:45:57;;;;;;;24.70;11.50;;;23.20;99.90;;;;;;5042028;28;20048;-55
2023/08/21 08:48:23;;;;;;;19.00;11.63;;;23.30;99.90;;;;;;5037544;28;20037;-54
2023/08/21 08:50:50;;;;;;;19.50;11.13;;;23.30;99.90;;;;;;5040841;28;20483;-56
2023/08/21 08:53:18;;;;;;;18.35;9.82;;;23.40;99.90;;;;;;5038200;28;20045;-55
2023/08/21 08:55:45;;;;;;;16.13;10.20;;;23.40;99.90;;;;;;5047275;28;20021;-56
2023/08/21 08:58:10;;;;;;;23.00;10.05;;;23.50;99.90;;;;;;5042958;28;20394;-54
2023/08/21 09:00:36;;;;;;;17.27;10.23;;;23.70;99.90;;;;;;5043986;28;20097;-57
2023/08/21 09:03:03;;;;;;;20.23;11.25;;;23.80;99.90;;;;;;5034888;28;20051;-58
2023/08/21 09:05:28;;;;;;;30.45;11.30;;;24.00;99.90;;;;;;5044635;28;20022;-56
2023/08/21 09:08:11;;;;;;;26.85;11.70;;;24.10;99.90;;;;;;5037253;28;20084;-56
2023/08/21 09:10:38;;;;;;;17.10;10.77;;;24.20;99.90;;;;;;5039132;28;20025;-56
2023/08/21 09:13:15;;;;;;;22.52;11.02;;;24.20;99.90;;;;;;5043904;28;20556;-53
2023/08/21 09:15:42;;;;;;;31.77;11.32;;;24.30;99.90;;;;;;5045030;28;20047;-57
2023/08/21 09:18:11;;;;;;;24.88;10.73;;;24.40;99.90;;;;;;5043938;28;20124;-55
2023/08/21 09:20:38;;;;;;;21.20;11.30;;;24.40;99.90;;;;;;5044493;28;20029;-58
2023/08/21 09:23:04;;;;;;;23.90;12.07;;;24.50;99.90;;;;;;5037955;28;20084;-56
2023/08/21 09:25:34;;;;;;;22.48;11.88;;;24.40;99.90;;;;;;5040071;28;20028;-56
2023/08/21 09:28:04;;;;;;;17.55;10.30;;;24.50;99.90;;;;;;5037090;28;20048;-57
2023/08/21 09:30:29;;;;;;;15.40;9.65;;;24.70;99.90;;;;;;5045397;28;20061;-57
2023/08/21 09:33:00;;;;;;;13.70;8.63;;;24.80;99.90;;;;;;5036416;28;20051;-58
2023/08/21 09:35:26;;;;;;;21.15;9.65;;;24.90;99.90;;;;;;5040737;28;20025;-58
2023/08/21 09:37:55;;;;;;;14.35;8.85;;;25.00;99.90;;;;;;5042852;28;20023;-59
2023/08/21 09:40:21;;;;;;;14.25;7.38;;;25.00;99.90;;;;;;5040424;28;20069;-56
2023/08/21 09:42:55;;;;;;;17.27;7.97;;;25.10;99.90;;;;;;5044292;28;20018;-53
2023/08/21 09:45:24;;;;;;;;;;;25.20;99.90;;;;;;5035372;28;20025;-55
2023/08/21 09:47:52;;;;;;;22.83;8.93;;;25.40;99.90;;;;;;5039397;28;19931;-56
2023/08/21 09:50:19;;;;;;;19.40;11.02;;;25.60;99.90;;;;;;5035103;28;20029;-58
2023/08/21 09:52:45;;;;;;;21.02;9.50;;;25.60;99.90;;;;;;5044671;28;20029;-56
2023/08/21 09:55:13;;;;;;;26.15;10.70;;;25.80;99.90;;;;;;5037399;28;20029;-55
2023/08/21 09:57:40;;;;;;;14.20;8.80;;;25.90;99.90;;;;;;5039116;28;20044;-57
2023/08/21 10:00:15;;;;;;;19.25;10.77;;;26.10;99.90;;;;;;5029764;28;20018;-55
2023/08/21 10:02:49;;;;;;;21.15;11.55;;;26.20;99.90;;;;;;5040467;28;20037;-57
2023/08/21 10:05:16;;;;;;;22.67;12.02;;;26.20;99.90;;;;;;5033160;28;20045;-58
2023/08/21 10:07:47;;;;;;;22.17;10.23;;;25.90;99.90;;;;;;5041227;28;20413;-55
2023/08/21 10:10:13;;;;;;;30.08;12.48;;;26.00;99.90;;;;;;5040217;28;20092;-56
2023/08/21 10:12:38;;;;;;;34.00;13.65;;;26.10;99.90;;;;;;5039541;28;20022;-58
2023/08/21 10:15:06;;;;;;;18.58;11.07;;;26.10;99.90;;;;;;5040715;28;20060;-59
2023/08/21 10:17:32;;;;;;;17.23;8.70;;;26.10;99.90;;;;;;5037687;28;20675;-55
2023/08/21 10:20:09;;;;;;;18.52;9.93;;;26.30;99.90;;;;;;5034899;28;20024;-57
2023/08/21 10:22:48;;;;;;;24.88;9.80;;;26.40;99.90;;;;;;5038064;28;20499;-56
2023/08/21 10:25:22;;;;;;;18.90;9.15;;;26.50;99.90;;;;;;5034512;28;20021;-56
2023/08/21 10:27:51;;;;;;;17.92;8.43;;;26.10;99.90;;;;;;5036934;28;20028;-55
2023/08/21 10:30:27;;;;;;;20.30;10.02;;;26.50;99.90;;;;;;5037289;28;20044;-56
2023/08/21 10:32:58;;;;;;;15.25;8.63;;;26.40;99.90;;;;;;5034898;28;20601;-54
2023/08/21 10:35:29;;;;;;;18.73;10.95;;;26.70;99.90;;;;;;5039315;28;20044;-56
2023/08/21 10:38:15;;;;;;;18.20;8.52;;;26.90;99.90;;;;;;5040420;28;20491;-58
2023/08/21 10:41:01;;;;;;;21.05;10.35;;;27.20;99.90;;;;;;5044823;28;20033;-57
2023/08/21 10:43:47;;;;;;;23.45;10.18;;;27.40;99.90;;;;;;5033972;28;20038;-57
2023/08/21 10:46:13;;;;;;;15.50;10.60;;;27.20;99.90;;;;;;5042527;28;20045;-57
2023/08/21 10:48:39;;;;;;;26.40;15.00;;;27.50;99.90;;;;;;5037176;28;20514;-56
2023/08/21 10:51:07;;;;;;;23.65;11.82;;;27.30;99.90;;;;;;5037135;28;20399;-55
2023/08/21 10:53:33;;;;;;;24.80;11.43;;;27.20;99.90;;;;;;5041985;28;20438;-56
2023/08/21 10:56:03;;;;;;;22.77;11.73;;;27.40;99.90;;;;;;5044512;28;20082;-56
2023/08/21 10:58:38;;;;;;;21.40;11.80;;;27.70;99.90;;;;;;5040080;28;20071;-56
2023/08/21 11:01:03;;;;;;;27.98;13.50;;;27.80;99.90;;;;;;5038003;28;20029;-56
2023/08/21 11:03:29;;;;;;;25.95;13.68;;;27.90;99.90;;;;;;5036452;28;20037;-55
2023/08/21 11:06:02;;;;;;;26.42;13.82;;;27.80;99.90;;;;;;5045130;28;20424;-55
2023/08/21 11:08:28;;;;;;;24.80;14.30;;;27.70;99.90;;;;;;5038649;28;20022;-56
2023/08/21 11:10:53;;;;;;;25.02;13.50;;;27.80;99.90;;;;;;5038813;28;20036;-57
2023/08/21 11:13:19;;;;;;;24.30;14.27;;;27.60;99.90;;;;;;5035695;28;20082;-56
2023/08/21 11:15:45;;;;;;;18.77;12.13;;;27.80;99.90;;;;;;5038071;28;20032;-59
2023/08/21 11:18:11;;;;;;;24.38;13.77;;;28.00;99.90;;;;;;5039114;28;20063;-55
2023/08/21 11:20:37;;;;;;;26.77;12.68;;;27.80;99.90;;;;;;5036262;28;20038;-55
2023/08/21 11:23:07;;;;;;;23.55;13.05;;;27.90;99.90;;;;;;5045757;28;20027;-54
2023/08/21 11:25:33;;;;;;;28.00;11.63;;;27.90;99.90;;;;;;5049958;28;20025;-58
2023/08/21 11:28:02;;;;;;;25.65;13.55;;;28.30;99.90;;;;;;5047768;28;20048;-59
2023/08/21 11:30:27;;;;;;;27.58;11.68;;;28.10;99.90;;;;;;5038968;28;20399;-57
2023/08/21 11:33:07;;;;;;;23.55;11.43;;;28.20;99.90;;;;;;5037731;28;20022;-57
2023/08/21 11:35:33;;;;;;;21.75;9.90;;;28.30;99.90;;;;;;5033581;28;20553;-56
2023/08/21 11:37:58;;;;;;;18.67;10.90;;;28.70;99.90;;;;;;5043475;28;20057;-57
2023/08/21 11:40:24;;;;;;;18.30;10.23;;;28.80;99.90;;;;;;5045382;28;20033;-53
2023/08/21 11:42:51;;;;;;;27.63;11.88;;;29.10;99.90;;;;;;5041387;28;20041;-53
2023/08/21 11:45:21;;;;;;;31.40;14.20;;;29.10;99.90;;;;;;5037921;28;20025;-56
2023/08/21 11:47:46;;;;;;;25.67;13.60;;;28.90;99.90;;;;;;5038024;28;20017;-58
2023/08/21 11:50:15;;;;;;;24.20;12.77;;;28.70;99.90;;;;;;5056219;28;20454;-57
2023/08/21 11:52:42;;;;;;;29.08;11.57;;;29.10;99.90;;;;;;5044790;28;20121;-58
2023/08/21 11:55:10;;;;;;;20.17;10.95;;;29.20;99.90;;;;;;5032451;28;20034;-62
2023/08/21 11:57:49;;;;;;;25.02;11.27;;;29.40;99.90;;;;;;5032607;28;20028;-62
2023/08/21 12:00:18;;;;;;;18.50;9.35;;;29.40;99.90;;;;;;5037213;28;20044;-62
2023/08/21 12:02:54;;;;;;;23.45;11.30;;;29.40;99.90;;;;;;5035956;28;20025;-62
2023/08/21 12:05:20;;;;;;;24.90;12.60;;;29.50;99.90;;;;;;5031114;28;20036;-62
2023/08/21 12:07:46;;;;;;;23.38;12.35;;;29.60;99.90;;;;;;5035071;28;20028;-63
2023/08/21 12:10:11;;;;;;;23.58;14.52;;;29.60;99.90;;;;;;5037140;28;20384;-63
2023/08/21 12:12:37;;;;;;;29.00;10.65;;;29.50;99.90;;;;;;5035425;28;20052;-63
2023/08/21 12:15:02;;;;;;;20.35;10.63;;;29.40;99.90;;;;;;5045561;28;20458;-63
2023/08/21 12:17:28;;;;;;;20.00;10.77;;;29.30;99.90;;;;;;5039110;28;20475;-63
2023/08/21 12:19:54;;;;;;;18.40;9.18;;;29.40;99.90;;;;;;5034450;28;20025;-63
2023/08/21 12:22:19;;;;;;;15.07;10.18;;;29.20;99.90;;;;;;5036710;28;20033;-62
2023/08/21 12:24:45;;;;;;;19.05;9.15;;;29.40;99.90;;;;;;5034239;28;20033;-62
2023/08/21 12:27:11;;;;;;;17.95;7.57;;;29.50;99.90;;;;;;5044720;28;20119;-62
2023/08/21 12:29:36;;;;;;;16.52;8.82;;;29.70;99.90;;;;;;5037787;28;20030;-60